Time;durP1;ratioP1;P1;durP2;ratioP2;P2;SDS_P1;SDS_P2;PMS_P1;PMS_P2;Temp;Humidity;BMP_temperature;BMP_pressure;BME280_temperature;BME280_humidity;BME280_pressure;Samples;Min_cycle;Max_cycle;Signal;HPM_P1;HPM_P2
2023/01/28 00:01:48;;;;;;;;;;;;;;;3.77;70.05;98922.97;5093352;28;20003;-42
2023/01/28 00:04:14;;;;;;;;;;;;;;;3.76;69.95;98931.03;5093161;28;19923;-42
2023/01/28 00:06:39;;;;;;;;;;;;;;;3.68;70.13;98927.47;5093271;28;19912;-41
2023/01/28 00:09:04;;;;;;;;;;;;;;;3.90;69.36;98923.16;5093212;28;19919;-42
2023/01/28 00:11:30;;;;;;;;;;;;;;;3.87;69.72;98931.41;5093149;28;19912;-42
2023/01/28 00:13:55;;;;;;;;;;;;;;;3.83;70.14;98932.75;5093022;28;19982;-42
2023/01/28 00:16:25;;;;;;;;;;;;;;;4.09;68.98;98932.34;5092954;28;19916;-42
2023/01/28 00:18:51;;;;;;;;;;;;;;;3.91;69.94;98929.22;5093284;28;19912;-42
2023/01/28 00:21:16;;;;;;;;;;;;;;;3.71;69.89;98934.19;5092786;28;19924;-42
2023/01/28 00:23:42;;;;;;;;;;;;;;;4.03;69.50;98934.84;5092811;28;20264;-42
2023/01/28 00:26:12;;;;;;;;;;;;;;;4.02;68.77;98946.41;5092833;28;20015;-42
2023/01/28 00:28:37;;;;;;;;;;;;;;;3.64;70.45;98939.34;5092544;28;19989;-42
2023/01/28 00:31:07;;;;;;;;;;;;;;;3.72;70.34;98941.91;5092807;28;20352;-42
2023/01/28 00:33:33;;;;;;;;;;;;;;;3.77;70.07;98945.81;5092418;28;19923;-42
2023/01/28 00:35:59;;;;;;;;;;;;;;;3.96;69.05;98947.94;5092744;28;19912;-41
2023/01/28 00:38:25;;;;;;;;;;;;;;;3.69;69.84;98951.97;5092933;28;19912;-41
2023/01/28 00:40:50;;;;;;;;;;;;;;;3.91;69.68;98960.81;5092431;28;19912;-41
2023/01/28 00:43:16;;;;;;;;;;;;;;;3.84;69.06;98937.00;5091298;28;19923;-41
2023/01/28 00:45:41;;;;;;;;;;;;;;;4.15;68.60;98970.28;5092302;28;19923;-41
2023/01/28 00:48:07;;;;;;;;;;;;;;;3.89;69.55;98970.72;5092299;28;19995;-41
2023/01/28 00:50:32;;;;;;;;;;;;;;;3.90;69.61;98970.53;5092224;28;20377;-42
2023/01/28 00:52:57;;;;;;;;;;;;;;;3.80;69.75;98974.41;5092301;28;19919;-41
2023/01/28 00:55:23;;;;;;;;;;;;;;;3.71;70.65;98977.13;5092461;28;19912;-42
2023/01/28 00:57:48;;;;;;;;;;;;;;;3.69;70.80;98968.59;5092346;28;19912;-41
2023/01/28 01:00:14;;;;;;;;;;;;;;;3.49;71.20;98972.69;5092090;28;19912;-42
2023/01/28 01:02:39;;;;;;;;;;;;;;;3.65;70.91;98980.44;5092063;28;20003;-42
2023/01/28 01:05:04;;;;;;;;;;;;;;;4.00;70.22;98974.69;5092018;28;19916;-42
2023/01/28 01:07:42;;;;;;;;;;;;;;;3.94;69.99;98978.91;5091946;28;19913;-42
2023/01/28 01:10:17;;;;;;;;;;;;;;;3.87;70.06;98977.97;5092057;28;19912;-42
2023/01/28 01:12:45;;;;;;;;;;;;;;;3.96;69.34;98976.06;5092206;28;19916;-42
2023/01/28 01:15:11;;;;;;;;;;;;;;;4.13;68.87;98977.53;5091984;28;19951;-42
2023/01/28 01:17:36;;;;;;;;;;;;;;;4.03;69.42;98982.25;5091738;28;19999;-42
2023/01/28 01:20:03;;;;;;;;;;;;;;;3.87;69.77;98978.78;5090658;28;19916;-42
2023/01/28 01:22:30;;;;;;;;;;;;;;;3.88;69.68;98980.44;5090419;28;20563;-42
2023/01/28 01:24:55;;;;;;;;;;;;;;;3.79;69.68;98976.22;5091790;28;19916;-42
2023/01/28 01:27:20;;;;;;;;;;;;;;;3.78;70.13;98985.09;5091646;28;20030;-43
2023/01/28 01:29:45;;;;;;;;;;;;;;;4.00;69.26;98982.59;5091709;28;20303;-43
2023/01/28 01:32:11;;;;;;;;;;;;;;;3.66;70.14;98994.44;5091609;28;19920;-42
2023/01/28 01:34:36;;;;;;;;;;;;;;;3.83;70.58;98985.41;5090287;28;20039;-42
2023/01/28 01:37:02;;;;;;;;;;;;;;;3.83;69.80;98987.22;5091536;28;20276;-41
2023/01/28 01:39:28;;;;;;;;;;;;;;;3.83;69.42;98988.03;5091390;28;19916;-41
2023/01/28 01:41:53;;;;;;;;;;;;;;;3.79;69.80;99002.56;5091394;28;19924;-41
2023/01/28 01:44:37;;;;;;;;;;;;;;;3.99;69.57;98994.16;5091571;28;19951;-41
2023/01/28 01:47:02;;;;;;;;;;;;;;;3.77;70.03;99003.69;5091243;28;20257;-41
2023/01/28 01:49:27;;;;;;;;;;;;;;;3.65;70.17;99005.94;5091436;28;19923;-41
2023/01/28 01:51:54;;;;;;;;;;;;;;;3.94;69.91;99001.75;5091237;28;20371;-41
2023/01/28 01:54:22;;;;;;;;;;;;;;;3.96;68.91;99007.66;5089759;28;20506;-41
2023/01/28 01:56:49;;;;;;;;;;;;;;;3.91;69.58;99003.75;5091384;28;19926;-42
2023/01/28 01:59:16;;;;;;;;;;;;;;;3.88;68.65;99019.91;5091529;28;19912;-41
2023/01/28 02:01:44;;;;;;;;;;;;;;;4.02;69.48;99014.88;5091973;28;19962;-41
2023/01/28 02:04:14;;;;;;;;;;;;;;;3.87;68.85;99014.81;5091863;28;19922;-42
2023/01/28 02:06:40;;;;;;;;;;;;;;;3.79;68.84;99028.03;5091707;28;19934;-42
2023/01/28 02:09:25;;;;;;;;;;;;;;;3.96;68.72;99013.75;5091979;28;19912;-41
2023/01/28 02:11:52;;;;;;;;;;;;;;;3.78;68.57;99023.78;5091881;28;19918;-41
2023/01/28 02:14:17;;;;;;;;;;;;;;;3.90;68.36;99025.81;5091714;28;19912;-41
2023/01/28 02:16:43;;;;;;;;;;;;;;;3.96;68.56;99031.34;5091736;28;19942;-41
2023/01/28 02:19:09;;;;;;;;;;;;;;;4.12;68.03;99036.47;5092231;28;19973;-42
2023/01/28 02:21:43;;;;;;;;;;;;;;;4.43;66.85;99025.78;5091480;28;19924;-42
2023/01/28 02:24:24;;;;;;;;;;;;;;;4.13;68.39;99026.75;5091734;28;19916;-41
2023/01/28 02:26:49;;;;;;;;;;;;;;;4.23;67.57;99033.41;5091613;28;19919;-41
2023/01/28 02:29:20;;;;;;;;;;;;;;;4.41;67.12;99037.50;5091405;28;20365;-42
2023/01/28 02:32:08;;;;;;;;;;;;;;;4.14;67.06;99038.94;5091331;28;19912;-41
2023/01/28 02:34:45;;;;;;;;;;;;;;;4.17;67.55;99036.78;5085804;28;19919;-41
2023/01/28 02:37:13;;;;;;;;;;;;;;;4.04;67.82;99040.00;5091578;28;19918;-41
2023/01/28 02:39:47;;;;;;;;;;;;;;;4.08;67.66;99041.28;5091801;28;19916;-41
2023/01/28 02:42:28;;;;;;;;;;;;;;;4.04;67.72;99042.63;5091450;28;19919;-41
2023/01/28 02:44:53;;;;;;;;;;;;;;;3.90;67.88;99049.50;5091479;28;20413;-42
2023/01/28 02:50:04;;;;;;;;;;;;;;;3.86;67.51;99040.31;5091912;28;19962;-41
2023/01/28 02:55:57;;;;;;;;;;;;;;;4.17;67.02;99047.31;5092012;28;20440;-42
2023/01/28 02:58:22;;;;;;;;;;;;;;;4.48;65.75;99049.78;5091457;28;19912;-42
2023/01/28 03:01:06;;;;;;;;;;;;;;;4.07;66.57;99049.34;5091625;28;19920;-42
2023/01/28 03:03:43;;;;;;;;;;;;;;;4.01;66.32;99056.16;5091080;28;19996;-41
2023/01/28 03:06:11;;;;;;;;;;;;;;;3.81;66.95;99060.25;5093166;28;19912;-41
2023/01/28 03:39:04;;;;;;;;;;;;;;;3.77;65.97;99066.88;5094217;28;19966;-42
2023/01/28 03:41:29;;;;;;;;;;;;;;;3.86;66.44;99074.53;5092986;28;19943;-42
2023/01/28 03:43:55;;;;;;;;;;;;;;;4.14;65.31;99073.19;5094026;28;19923;-42
2023/01/28 03:46:21;;;;;;;;;;;;;;;4.07;65.54;99080.94;5094611;28;19922;-42
2023/01/28 03:48:46;;;;;;;;;;;;;;;4.04;65.56;99082.13;5094226;28;19916;-38
2023/01/28 03:51:11;;;;;;;;;;;;;;;3.98;65.25;99074.09;5094070;28;19968;-36
2023/01/28 03:53:38;;;;;;;;;;;;;;;3.85;66.30;99082.63;5093948;28;19943;-36
2023/01/28 03:56:03;;;;;;;;;;;;;;;3.84;66.76;99087.03;5094102;28;19912;-36
2023/01/28 03:58:44;;;;;;;;;;;;;;;3.95;66.07;99083.19;5093929;28;20364;-37
2023/01/28 04:01:10;;;;;;;;;;;;;;;3.95;66.29;99093.72;5093922;28;19912;-36
2023/01/28 04:03:35;;;;;;;;;;;;;;;3.82;66.35;99090.84;5093778;28;19916;-36
2023/01/28 04:06:03;;;;;;;;;;;;;;;3.75;65.95;99088.13;5092878;28;19912;-36
2023/01/28 04:08:28;;;;;;;;;;;;;;;3.78;65.99;99089.56;5093227;28;19931;-36
2023/01/28 04:10:53;;;;;;;;;;;;;;;3.63;66.55;99092.13;5092917;28;19935;-36
2023/01/28 04:13:19;;;;;;;;;;;;;;;3.55;66.87;99094.84;5092944;28;20008;-36
2023/01/28 04:15:45;;;;;;;;;;;;;;;3.46;67.26;99096.69;5092518;28;19943;-36
2023/01/28 04:18:10;;;;;;;;;;;;;;;3.44;67.61;99088.94;5092741;28;20335;-36
2023/01/28 04:20:36;;;;;;;;;;;;;;;3.76;66.85;99089.75;5092590;28;19924;-36
2023/01/28 04:23:02;;;;;;;;;;;;;;;3.82;66.10;99085.59;5092732;28;19912;-36
2023/01/28 04:25:27;;;;;;;;;;;;;;;3.91;66.49;99092.44;5092679;28;19942;-36
2023/01/28 04:27:52;;;;;;;;;;;;;;;4.02;66.17;99096.47;5092675;28;20286;-36
2023/01/28 04:30:18;;;;;;;;;;;;;;;4.16;64.93;99095.69;5092761;28;19951;-36
2023/01/28 04:32:45;;;;;;;;;;;;;;;3.97;65.06;99093.56;5092845;28;19919;-36
2023/01/28 04:35:10;;;;;;;;;;;;;;;4.04;65.08;99099.75;5092988;28;19912;-37
2023/01/28 04:37:35;;;;;;;;;;;;;;;3.65;65.98;99093.59;5092721;28;19976;-36
2023/01/28 04:40:01;;;;;;;;;;;;;;;3.72;66.65;99094.53;5092300;28;19912;-36
2023/01/28 04:42:26;;;;;;;;;;;;;;;3.75;66.08;99111.81;5092678;28;20007;-35
2023/01/28 04:44:51;;;;;;;;;;;;;;;3.51;67.00;99104.88;5092410;28;19919;-36
2023/01/28 04:47:18;;;;;;;;;;;;;;;3.57;67.40;99111.25;5092352;28;20280;-36
2023/01/28 04:49:44;;;;;;;;;;;;;;;3.47;67.05;99106.22;5093446;28;19970;-36
2023/01/28 04:52:09;;;;;;;;;;;;;;;3.73;67.27;99124.28;5093082;28;19912;-36
2023/01/28 04:54:34;;;;;;;;;;;;;;;3.58;66.84;99121.63;5093312;28;19912;-36
2023/01/28 04:57:00;;;;;;;;;;;;;;;3.67;66.50;99127.63;5093179;28;20403;-36
2023/01/28 04:59:25;;;;;;;;;;;;;;;3.59;67.03;99136.41;5093069;28;19919;-36
2023/01/28 05:01:50;;;;;;;;;;;;;;;3.57;66.15;99127.03;5092981;28;19919;-36
2023/01/28 05:04:16;;;;;;;;;;;;;;;3.57;66.42;99134.94;5093036;28;19961;-36
2023/01/28 05:06:41;;;;;;;;;;;;;;;3.94;65.73;99138.66;5092903;28;20451;-36
2023/01/28 05:09:06;;;;;;;;;;;;;;;3.51;66.56;99139.91;5093155;28;19919;-36
2023/01/28 05:11:32;;;;;;;;;;;;;;;3.53;67.06;99148.44;5092688;28;19912;-36
2023/01/28 05:13:57;;;;;;;;;;;;;;;3.77;66.90;99144.03;5092866;28;19969;-36
2023/01/28 05:16:22;;;;;;;;;;;;;;;3.62;67.21;99145.78;5092586;28;19913;-36
2023/01/28 05:18:50;;;;;;;;;;;;;;;3.40;67.42;99145.53;5092963;28;19972;-36
2023/01/28 05:21:15;;;;;;;;;;;;;;;3.46;67.84;99149.28;5092177;28;20392;-36
2023/01/28 05:23:40;;;;;;;;;;;;;;;3.59;67.81;99154.00;5092559;28;19919;-36
2023/01/28 05:26:06;;;;;;;;;;;;;;;3.85;66.81;99159.78;5092440;28;19958;-36
2023/01/28 05:28:33;;;;;;;;;;;;;;;3.71;66.76;99161.34;5091083;28;20328;-36
2023/01/28 05:31:05;;;;;;;;;;;;;;;3.51;67.61;99157.50;5092191;28;19916;-36
2023/01/28 05:33:30;;;;;;;;;;;;;;;3.83;66.95;99158.31;5092533;28;19912;-37
2023/01/28 05:35:56;;;;;;;;;;;;;;;3.77;66.93;99159.84;5092335;28;19969;-36
2023/01/28 05:38:21;;;;;;;;;;;;;;;3.86;66.48;99166.66;5092130;28;20379;-36
2023/01/28 05:40:47;;;;;;;;;;;;;;;3.40;67.53;99163.13;5092161;28;19999;-37
2023/01/28 05:43:12;;;;;;;;;;;;;;;3.85;67.39;99172.94;5092381;28;19948;-36
2023/01/28 05:45:37;;;;;;;;;;;;;;;3.98;66.48;99175.00;5092334;28;19935;-36
2023/01/28 05:48:03;;;;;;;;;;;;;;;4.02;66.10;99181.56;5092288;28;20380;-36
2023/01/28 05:50:28;;;;;;;;;;;;;;;3.96;66.75;99186.69;5092233;28;19916;-36
2023/01/28 05:52:53;;;;;;;;;;;;;;;3.72;67.30;99177.94;5091800;28;20353;-36
2023/01/28 05:55:18;;;;;;;;;;;;;;;3.76;67.12;99187.13;5092006;28;19912;-36
2023/01/28 05:57:44;;;;;;;;;;;;;;;3.74;67.02;99191.75;5091976;28;20341;-36
2023/01/28 06:00:09;;;;;;;;;;;;;;;3.82;67.48;99198.78;5092057;28;19922;-36
2023/01/28 06:02:34;;;;;;;;;;;;;;;4.05;74.00;99204.88;5092098;28;20453;-36
2023/01/28 06:05:00;;;;;;;;;;;;;;;4.05;66.72;99201.44;5091393;28;19916;-37
2023/01/28 06:07:25;;;;;;;;;;;;;;;4.27;67.32;99207.72;5091561;28;20067;-37
2023/01/28 06:09:50;;;;;;;;;;;;;;;4.56;67.05;99212.25;5091345;28;19931;-36
2023/01/28 06:12:16;;;;;;;;;;;;;;;4.66;65.11;99220.75;5087886;28;19916;-36
2023/01/28 06:14:41;;;;;;;;;;;;;;;4.41;65.26;99220.13;5081837;28;19912;-36
2023/01/28 06:17:06;;;;;;;;;;;;;;;4.16;65.75;99216.84;5091118;28;19963;-36
2023/01/28 06:19:32;;;;;;;;;;;;;;;4.29;65.50;99232.06;5091164;28;19974;-36
2023/01/28 06:21:57;;;;;;;;;;;;;;;3.86;66.91;99229.03;5090673;28;20392;-36
2023/01/28 06:24:23;;;;;;;;;;;;;;;4.06;67.01;99230.25;5091217;28;19920;-36
2023/01/28 06:26:48;;;;;;;;;;;;;;;4.17;66.20;99238.72;5091344;28;20280;-36
2023/01/28 06:29:13;;;;;;;;;;;;;;;4.29;65.82;99247.88;5091248;28;20011;-36
2023/01/28 06:31:39;;;;;;;;;;;;;;;4.20;65.94;99246.28;5091277;28;20008;-36
2023/01/28 06:34:04;;;;;;;;;;;;;;;4.22;67.03;99249.56;5091250;28;19912;-36
2023/01/28 06:36:30;;;;;;;;;;;;;;;4.08;66.84;99245.88;5091246;28;20389;-37
2023/01/28 06:38:55;;;;;;;;;;;;;;;3.77;67.68;99246.69;5091562;28;19912;-36
2023/01/28 06:41:21;;;;;;;;;;;;;;;4.09;67.08;99252.75;5093535;28;19924;-37
2023/01/28 06:43:46;;;;;;;;;;;;;;;4.08;66.82;99256.41;5094675;28;19924;-36
2023/01/28 06:46:11;;;;;;;;;;;;;;;4.09;67.53;99263.28;5094691;28;19912;-36
2023/01/28 06:48:36;;;;;;;;;;;;;;;4.16;67.02;99266.88;5095212;28;19919;-36
2023/01/28 06:51:02;;;;;;;;;;;;;;;4.59;65.76;99269.91;5095047;28;19973;-37
2023/01/28 06:53:27;;;;;;;;;;;;;;;4.98;64.17;99270.75;5095282;28;19912;-37
2023/01/28 06:55:52;;;;;;;;;;;;;;;4.80;67.59;99276.34;5093523;28;19916;-37
2023/01/28 06:58:17;;;;;;;;;;;;;;;5.14;64.03;99273.22;5091091;28;19920;-37
2023/01/28 07:00:43;;;;;;;;;;;;;;;4.50;65.46;99270.94;5092910;28;19920;-37
2023/01/28 07:03:08;;;;;;;;;;;;;;;4.70;65.81;99277.41;5075649;28;19950;-42
2023/01/28 07:05:34;;;;;;;;;;;;;;;5.02;63.58;99288.66;5085753;28;19919;-42
2023/01/28 07:08:01;;;;;;;;;;;;;;;4.56;64.82;99275.50;5094776;28;19951;-43
2023/01/28 07:10:26;;;;;;;;;;;;;;;4.42;66.29;99287.63;5096845;28;19911;-42
2023/01/28 07:12:51;;;;;;;;;;;;;;;4.65;65.10;99287.63;5100999;28;19922;-43
2023/01/28 07:15:17;;;;;;;;;;;;;;;5.06;64.03;99294.38;5098609;28;20335;-44
2023/01/28 07:17:42;;;;;;;;;;;;;;;5.54;62.65;99302.00;5095963;28;19977;-35
2023/01/28 07:20:09;;;;;;;;;;;;;;;5.20;63.24;99292.81;5096010;28;19916;-36
2023/01/28 07:22:35;;;;;;;;;;;;;;;4.87;64.21;99303.63;5092238;28;20411;-35
2023/01/28 07:25:00;;;;;;;;;;;;;;;4.66;65.41;99297.19;5093626;28;19966;-36
2023/01/28 07:27:25;;;;;;;;;;;;;;;4.83;64.82;99302.34;5093412;28;19939;-37
2023/01/28 07:29:51;;;;;;;;;;;;;;;5.16;63.21;99299.41;5093959;28;19916;-42
2023/01/28 07:32:16;;;;;;;;;;;;;;;4.87;64.60;99315.00;5093670;28;20002;-47
2023/01/28 07:34:41;;;;;;;;;;;;;;;5.17;63.75;99304.50;5093290;28;19916;-42
2023/01/28 07:37:07;;;;;;;;;;;;;;;5.17;63.79;99304.50;5093922;28;19995;-41
2023/01/28 07:39:33;;;;;;;;;;;;;;;4.55;65.10;99313.41;5093924;28;19916;-43
2023/01/28 07:41:58;;;;;;;;;;;;;;;4.85;63.87;99318.78;5094170;28;20360;-41
2023/01/28 07:44:36;;;;;;;;;;;;;;;4.96;63.80;99313.09;5085049;28;19927;-42
2023/01/28 07:47:02;;;;;;;;;;;;;;;4.90;64.50;99319.91;5076367;28;19966;-44
2023/01/28 07:49:28;;;;;;;;;;;;;;;5.08;63.64;99319.59;5074049;28;19917;-43
2023/01/28 07:51:53;;;;;;;;;;;;;;;5.33;62.80;99323.81;5073281;28;19912;-42
2023/01/28 07:54:18;;;;;;;;;;;;;;;6.00;61.10;99321.16;5073734;28;19923;-43
2023/01/28 07:56:43;;;;;;;;;;;;;;;6.25;60.02;99324.28;5072765;28;19920;-43
2023/01/28 07:59:09;;;;;;;;;;;;;;;6.36;60.41;99322.16;5073641;28;20431;-43
2023/01/28 08:01:34;;;;;;;;;;;;;;;6.12;59.80;99323.31;5073628;28;19920;-43
2023/01/28 08:03:59;;;;;;;;;;;;;;;6.33;59.87;99327.84;5073015;28;20341;-42
2023/01/28 08:06:26;;;;;;;;;;;;;;;6.34;60.39;99322.38;5077475;28;19912;-43
2023/01/28 08:08:52;;;;;;;;;;;;;;;6.69;59.62;99334.94;5093424;28;19934;-42
2023/01/28 08:11:17;;;;;;;;;;;;;;;7.00;58.00;99331.97;5092168;28;20352;-42
2023/01/28 08:13:42;;;;;;;;;;;;;;;7.13;57.64;99342.66;5092575;28;19912;-42
2023/01/28 08:16:08;;;;;;;;;;;;;;;8.09;55.56;99346.53;5093759;28;20431;-42
2023/01/28 08:18:33;;;;;;;;;;;;;;;8.59;53.98;99347.19;5093749;28;19920;-42
2023/01/28 08:20:58;;;;;;;;;;;;;;;8.47;54.22;99346.13;5093024;28;19993;-42
2023/01/28 08:23:25;;;;;;;;;;;;;;;8.02;55.15;99346.53;5092405;28;20391;-42
2023/01/28 08:25:51;;;;;;;;;;;;;;;8.42;53.81;99352.03;5091397;28;19912;-42
2023/01/28 08:28:17;;;;;;;;;;;;;;;8.59;53.65;99355.16;5091476;28;19915;-42
2023/01/28 08:30:42;;;;;;;;;;;;;;;9.70;52.19;99357.22;5091694;28;19973;-41
2023/01/28 08:33:10;;;;;;;;;;;;;;;9.64;51.44;99365.22;5091584;28;19923;-41
2023/01/28 08:35:36;;;;;;;;;;;;;;;9.38;50.69;99370.31;5092189;28;19984;-42
2023/01/28 08:38:02;;;;;;;;;;;;;;;8.94;50.93;99374.38;5091638;28;20447;-42
2023/01/28 08:40:27;;;;;;;;;;;;;;;8.82;51.23;99372.53;5092531;28;19919;-42
2023/01/28 08:42:53;;;;;;;;;;;;;;;9.04;50.80;99371.34;5092307;28;19912;-42
2023/01/28 08:45:21;;;;;;;;;;;;;;;7.89;52.17;99370.31;5092173;28;20149;-42
2023/01/28 08:48:03;;;;;;;;;;;;;;;7.88;52.65;99368.66;5092151;28;19916;-41
2023/01/28 08:50:33;;;;;;;;;;;;;;;7.96;52.73;99379.13;5092585;28;19923;-42
2023/01/28 08:53:00;;;;;;;;;;;;;;;8.46;52.07;99374.47;5092503;28;20067;-42
2023/01/28 08:55:26;;;;;;;;;;;;;;;9.10;51.58;99372.38;5092156;28;20008;-40
2023/01/28 08:57:52;;;;;;;;;;;;;;;9.27;49.54;99378.09;5092279;28;20375;-41
2023/01/28 09:00:17;;;;;;;;;;;;;;;9.64;49.92;99379.31;5092258;28;19918;-43
2023/01/28 09:02:43;;;;;;;;;;;;;;;9.25;49.95;99388.91;5091699;28;19919;-44
2023/01/28 09:05:09;;;;;;;;;;;;;;;9.23;49.52;99382.19;5091809;28;19920;-40
2023/01/28 09:07:34;;;;;;;;;;;;;;;9.15;49.63;99389.31;5091888;28;19918;-41
2023/01/28 09:10:00;;;;;;;;;;;;;;;9.31;50.08;99389.94;5090815;28;19995;-41
2023/01/28 09:12:26;;;;;;;;;;;;;;;9.54;48.22;99390.38;5092073;28;19912;-41
2023/01/28 09:14:51;;;;;;;;;;;;;;;9.22;48.33;99393.84;5092287;28;19973;-41
2023/01/28 09:17:17;;;;;;;;;;;;;;;9.15;49.29;99391.16;5091664;28;20360;-41
2023/01/28 09:19:42;;;;;;;;;;;;;;;9.03;50.07;99385.63;5091734;28;19916;-41
2023/01/28 09:22:07;;;;;;;;;;;;;;;9.79;48.64;99390.53;5091697;28;20073;-42
2023/01/28 09:24:32;;;;;;;;;;;;;;;9.51;48.30;99382.81;5091819;28;19989;-41
2023/01/28 09:26:58;;;;;;;;;;;;;;;9.37;48.89;99386.50;5091513;28;19916;-42
2023/01/28 09:29:23;;;;;;;;;;;;;;;9.47;48.69;99386.09;5091553;28;20241;-42
2023/01/28 09:31:48;;;;;;;;;;;;;;;9.62;48.10;99384.03;5091554;28;19959;-41
2023/01/28 09:34:14;;;;;;;;;;;;;;;10.43;46.68;99382.81;5091822;28;20350;-43
2023/01/28 09:36:39;;;;;;;;;;;;;;;9.81;47.63;99387.69;5091557;28;19916;-39
2023/01/28 09:39:05;;;;;;;;;;;;;;;9.22;47.88;99380.56;5091649;28;19991;-41
2023/01/28 09:41:39;;;;;;;;;;;;;;;9.14;48.32;99384.25;5091701;28;20444;-43
2023/01/28 09:44:16;;;;;;;;;;;;;;;8.96;48.04;99388.28;5091312;28;19964;-41
2023/01/28 09:46:44;;;;;;;;;;;;;;;9.41;48.17;99392.22;5091326;28;19941;-41
2023/01/28 09:49:23;;;;;;;;;;;;;;;8.33;50.60;99374.41;5091307;28;19916;-42
2023/01/28 09:51:51;;;;;;;;;;;;;;;8.31;50.34;99384.38;5090818;28;19919;-42
2023/01/28 09:54:25;;;;;;;;;;;;;;;8.50;50.38;99381.00;5091010;28;19912;-42
2023/01/28 09:56:53;;;;;;;;;;;;;;;8.64;50.33;99378.41;5091503;28;19912;-41
2023/01/28 09:59:20;;;;;;;;;;;;;;;9.29;49.95;99381.38;5091017;28;20386;-42
2023/01/28 10:01:52;;;;;;;;;;;;;;;9.82;48.48;99388.50;5091302;28;19912;-42
2023/01/28 10:04:23;;;;;;;;;;;;;;;9.06;49.24;99377.25;5091082;28;20006;-42
2023/01/28 10:06:48;;;;;;;;;;;;;;;8.82;50.11;99388.47;5091258;28;19918;-42
2023/01/28 10:09:19;;;;;;;;;;;;;;;8.60;50.99;99373.50;5091538;28;20247;-41
2023/01/28 10:11:51;;;;;;;;;;;;;;;9.04;50.27;99386.44;5091660;28;20032;-43
2023/01/28 10:14:26;;;;;;;;;;;;;;;8.54;51.06;99379.59;5091433;28;19912;-42
2023/01/28 10:16:59;;;;;;;;;;;;;;;8.50;50.50;99375.72;5091002;28;19919;-42
2023/01/28 10:19:26;;;;;;;;;;;;;;;8.85;50.51;99377.44;5091694;28;19962;-42
2023/01/28 10:21:55;;;;;;;;;;;;;;;9.18;49.76;99391.59;5090718;28;20296;-42
2023/01/28 10:24:37;;;;;;;;;;;;;;;8.51;50.17;99381.81;5090668;28;19920;-42
2023/01/28 10:27:08;;;;;;;;;;;;;;;8.56;50.70;99377.56;5090769;28;20372;-43
2023/01/28 10:29:34;;;;;;;;;;;;;;;7.60;52.90;99374.81;5091163;28;19995;-42
2023/01/28 10:32:04;;;;;;;;;;;;;;;8.26;51.52;99384.13;5091216;28;19912;-43
2023/01/28 10:34:29;;;;;;;;;;;;;;;8.50;50.67;99383.66;5091172;28;20376;-42
2023/01/28 10:36:56;;;;;;;;;;;;;;;8.24;51.91;99371.06;5090988;28;19912;-43
2023/01/28 10:39:24;;;;;;;;;;;;;;;8.39;51.97;99385.00;5090706;28;19916;-43
2023/01/28 10:41:49;;;;;;;;;;;;;;;8.49;50.89;99378.56;5091308;28;19923;-42
2023/01/28 10:44:29;;;;;;;;;;;;;;;8.63;50.67;99382.91;5091008;28;19916;-43
2023/01/28 10:46:57;;;;;;;;;;;;;;;8.64;51.46;99381.06;5090916;28;19952;-43
2023/01/28 10:49:25;;;;;;;;;;;;;;;8.61;51.30;99377.78;5090960;28;20068;-42
2023/01/28 10:51:50;;;;;;;;;;;;;;;8.37;51.81;99373.78;5090946;28;20403;-42
2023/01/28 10:54:20;;;;;;;;;;;;;;;8.26;52.03;99378.84;5090432;28;19998;-42
2023/01/28 10:56:46;;;;;;;;;;;;;;;8.10;52.25;99380.00;5090697;28;19912;-41
2023/01/28 10:59:31;;;;;;;;;;;;;;;8.39;52.67;99377.06;5090922;28;19912;-43
2023/01/28 11:02:00;;;;;;;;;;;;;;;8.39;52.33;99373.59;5090957;28;19938;-42
2023/01/28 11:04:29;;;;;;;;;;;;;;;8.06;53.83;99384.88;5090489;28;19916;-42
2023/01/28 11:07:15;;;;;;;;;;;;;;;8.63;52.83;99377.59;5086406;28;19919;-41
2023/01/28 11:09:43;;;;;;;;;;;;;;;8.59;51.58;99389.63;5070253;28;19919;-42
2023/01/28 11:12:11;;;;;;;;;;;;;;;8.71;52.19;99381.91;5070690;28;19974;-41
2023/01/28 11:14:36;;;;;;;;;;;;;;;8.33;53.12;99372.56;5070164;28;19919;-41
2023/01/28 11:17:02;;;;;;;;;;;;;;;7.82;54.55;99375.53;5070343;28;19912;-41
2023/01/28 11:19:30;;;;;;;;;;;;;;;7.82;54.35;99376.38;5069710;28;19935;-42
2023/01/28 11:21:56;;;;;;;;;;;;;;;7.72;54.21;99381.19;5070136;28;20410;-41
2023/01/28 11:24:24;;;;;;;;;;;;;;;8.21;53.42;99376.78;5068805;28;20033;-42
2023/01/28 11:26:52;;;;;;;;;;;;;;;8.52;53.34;99381.63;5069611;28;19966;-42
2023/01/28 11:29:25;;;;;;;;;;;;;;;8.64;51.88;99368.59;5071840;28;19912;-43
2023/01/28 11:31:51;;;;;;;;;;;;;;;8.73;52.02;99374.56;5073308;28;19991;-43
2023/01/28 11:34:17;;;;;;;;;;;;;;;8.50;52.52;99372.25;5072614;28;20384;-42
2023/01/28 11:36:49;;;;;;;;;;;;;;;9.11;50.92;99372.16;5072482;28;19912;-42
2023/01/28 11:39:27;;;;;;;;;;;;;;;8.84;52.03;99368.66;5072900;28;20293;-42
2023/01/28 11:41:52;;;;;;;;;;;;;;;9.65;50.77;99382.78;5073495;28;19912;-41
2023/01/28 11:44:22;;;;;;;;;;;;;;;9.63;50.55;99383.00;5073263;28;19927;-42
2023/01/28 11:47:01;;;;;;;;;;;;;;;9.62;50.53;99381.38;5073333;28;20380;-42
2023/01/28 11:49:26;;;;;;;;;;;;;;;8.34;53.01;99373.34;5072861;28;19912;-42
2023/01/28 11:51:56;;;;;;;;;;;;;;;8.74;53.15;99381.50;5091585;28;19923;-42
2023/01/28 11:54:44;;;;;;;;;;;;;;;8.67;52.21;99380.66;5093263;28;19916;-42
2023/01/28 11:57:16;;;;;;;;;;;;;;;8.60;52.03;99386.78;5093543;28;19920;-42
2023/01/28 11:59:41;;;;;;;;;;;;;;;8.16;53.79;99380.03;5091727;28;19912;-42
2023/01/28 12:02:15;;;;;;;;;;;;;;;8.32;53.24;99386.00;5093518;28;19919;-42
2023/01/28 12:04:43;;;;;;;;;;;;;;;8.64;52.27;99386.34;5093362;28;19916;-42
2023/01/28 12:07:11;;;;;;;;;;;;;;;8.04;53.68;99384.25;5093109;28;19912;-43
2023/01/28 12:09:38;;;;;;;;;;;;;;;7.99;54.05;99399.91;5093331;28;20380;-43
2023/01/28 12:12:22;;;;;;;;;;;;;;;7.80;54.77;99391.63;5093207;28;19912;-45
2023/01/28 12:14:50;;;;;;;;;;;;;;;7.74;55.07;99396.91;5092869;28;19935;-42
2023/01/28 12:17:16;;;;;;;;;;;;;;;7.49;55.67;99407.09;5093205;28;20289;-43
2023/01/28 12:19:41;;;;;;;;;;;;;;;7.47;55.60;99402.00;5093199;28;20036;-41
2023/01/28 12:22:12;;;;;;;;;;;;;;;7.10;57.54;99405.72;5092802;28;20018;-42
2023/01/28 12:24:43;;;;;;;;;;;;;;;7.67;57.04;99404.78;5093085;28;19916;-42
2023/01/28 12:27:20;;;;;;;;;;;;;;;7.78;56.09;99409.56;5092822;28;19912;-42
2023/01/28 12:29:46;;;;;;;;;;;;;;;7.44;56.53;99400.56;5092786;28;20372;-43
2023/01/28 12:32:30;;;;;;;;;;;;;;;7.71;56.41;99411.34;5093077;28;19941;-43
2023/01/28 12:35:14;;;;;;;;;;;;;;;7.30;57.24;99401.44;5093068;28;20336;-43
2023/01/28 12:37:54;;;;;;;;;;;;;;;7.39;57.45;99416.19;5092037;28;19972;-42
2023/01/28 12:40:37;;;;;;;;;;;;;;;7.26;57.55;99416.06;5092382;28;19912;-43
2023/01/28 12:43:12;;;;;;;;;;;;;;;7.61;57.63;99418.81;5092538;28;19912;-41
2023/01/28 12:45:44;;;;;;;;;;;;;;;7.71;56.29;99419.31;5092919;28;19962;-41
2023/01/28 12:48:17;;;;;;;;;;;;;;;6.82;59.30;99423.16;5092680;28;19916;-43
2023/01/28 12:50:48;;;;;;;;;;;;;;;6.95;59.34;99419.84;5092871;28;19912;-41
2023/01/28 12:53:29;;;;;;;;;;;;;;;7.04;59.68;99423.19;5092699;28;19997;-41
2023/01/28 12:56:08;;;;;;;;;;;;;;;7.34;59.27;99434.47;5092660;28;19985;-41
2023/01/28 12:58:46;;;;;;;;;;;;;;;7.57;58.62;99433.44;5091142;28;19913;-43
2023/01/28 13:01:16;;;;;;;;;;;;;;;7.02;60.36;99433.13;5092022;28;19912;-43
2023/01/28 13:03:52;;;;;;;;;;;;;;;7.24;60.32;99431.31;5090875;28;20315;-43
2023/01/28 13:06:44;;;;;;;;;;;;;;;7.44;59.98;99434.97;5092802;28;19970;-42
2023/01/28 13:09:15;;;;;;;;;;;;;;;7.21;60.78;99437.00;5090372;28;19992;-41
2023/01/28 13:11:40;;;;;;;;;;;;;;;7.26;60.62;99439.91;5091566;28;20364;-43
2023/01/28 13:14:06;;;;;;;;;;;;;;;6.89;61.61;99440.94;5092074;28;19912;-42
2023/01/28 13:16:32;;;;;;;;;;;;;;;7.17;61.33;99449.78;5092331;28;19919;-41
2023/01/28 13:19:23;;;;;;;;;;;;;;;6.80;61.83;99446.34;5092312;28;19916;-42
2023/01/28 13:21:49;;;;;;;;;;;;;;;6.34;62.86;99451.88;5089502;28;19924;-42
2023/01/28 13:24:15;;;;;;;;;;;;;;;6.59;62.50;99455.03;5091922;28;20310;-42
2023/01/28 13:26:40;;;;;;;;;;;;;;;6.03;63.37;99455.50;5092110;28;19912;-42
2023/01/28 13:29:26;;;;;;;;;;;;;;;6.32;62.69;99463.63;5090412;28;19938;-41
2023/01/28 13:31:52;;;;;;;;;;;;;;;6.58;62.78;99466.59;5091365;28;19951;-41
2023/01/28 13:34:33;;;;;;;;;;;;;;;6.41;62.55;99468.63;5091687;28;19916;-43
2023/01/28 13:37:18;;;;;;;;;;;;;;;6.14;63.71;99475.38;5091491;28;19913;-42
2023/01/28 13:39:51;;;;;;;;;;;;;;;6.09;63.17;99472.44;5091143;28;20443;-42